createdAt,value
2024-03-12T00:02:08.811Z,10.53
2024-03-12T00:04:41.343Z,10.59
2024-03-12T00:07:12.413Z,10.64
2024-03-12T00:09:47.517Z,10.63
2024-03-12T00:12:19.317Z,10.62
2024-03-12T00:14:50.798Z,10.67
2024-03-12T00:17:21.595Z,10.70
2024-03-12T00:19:53.746Z,10.64
2024-03-12T00:22:30.742Z,10.64
2024-03-12T00:25:09.348Z,10.59
2024-03-12T00:27:43.171Z,10.62
2024-03-12T00:30:15.495Z,10.65
2024-03-12T00:32:46.245Z,10.61
2024-03-12T00:35:17.218Z,10.51
2024-03-12T00:37:50.115Z,10.47
2024-03-12T00:40:24.106Z,10.54
2024-03-12T00:42:54.900Z,10.43
2024-03-12T00:45:38.656Z,10.38
2024-03-12T00:48:12.732Z,10.36
2024-03-12T00:50:53.639Z,10.30
2024-03-12T00:53:35.358Z,10.25
2024-03-12T00:56:24.076Z,10.22
2024-03-12T00:58:55.223Z,10.17
2024-03-12T01:01:27.819Z,10.21
2024-03-12T01:03:59.078Z,10.07
2024-03-12T01:06:30.086Z,10.05
2024-03-12T01:09:00.548Z,9.95
2024-03-12T01:11:35.903Z,9.94
2024-03-12T01:14:10.932Z,9.91
2024-03-12T01:16:41.576Z,9.94
2024-03-12T01:19:13.466Z,9.95
2024-03-12T01:21:48.629Z,9.99
2024-03-12T01:24:22.094Z,10.05
2024-03-12T01:26:56.614Z,10.05
2024-03-12T01:29:28.943Z,9.91
2024-03-12T01:31:59.592Z,9.88
2024-03-12T01:34:35.096Z,9.84
2024-03-12T01:37:07.926Z,9.76
2024-03-12T01:39:41.359Z,9.69
2024-03-12T01:42:14.855Z,9.66
2024-03-12T01:44:45.552Z,9.71
2024-03-12T01:47:16.414Z,9.77
2024-03-12T01:49:50.315Z,9.76
2024-03-12T01:52:24.489Z,9.68
2024-03-12T01:54:55.235Z,9.65
2024-03-12T01:57:28.561Z,9.64
2024-03-12T02:00:02.253Z,9.57
2024-03-12T02:02:44.168Z,9.58
2024-03-12T02:05:18.053Z,9.54
2024-03-12T02:07:57.406Z,9.56
2024-03-12T02:10:33.873Z,9.47
2024-03-12T02:13:11.409Z,9.42
2024-03-12T02:15:44.615Z,9.41
2024-03-12T02:18:15.988Z,9.45
2024-03-12T02:20:49.967Z,9.40
2024-03-12T02:23:20.777Z,9.32
2024-03-12T02:25:54.057Z,9.27
2024-03-12T02:28:28.131Z,9.23
2024-03-12T02:30:58.831Z,9.21
2024-03-12T02:33:29.764Z,9.20
2024-03-12T02:36:02.938Z,9.14
2024-03-12T02:38:33.624Z,8.99
2024-03-12T02:41:09.059Z,8.97
2024-03-12T02:43:40.807Z,9.01
2024-03-12T02:46:13.149Z,9.00
2024-03-12T02:48:44.070Z,9.06
2024-03-12T02:51:17.868Z,9.09
2024-03-12T02:53:48.586Z,8.96
2024-03-12T02:56:24.882Z,8.81
2024-03-12T02:58:57.695Z,8.74
2024-03-12T03:01:28.907Z,8.85
2024-03-12T03:04:01.319Z,8.88
2024-03-12T03:06:35.665Z,8.91
2024-03-12T03:09:06.987Z,8.99
2024-03-12T03:11:42.445Z,9.07
2024-03-12T03:14:13.105Z,9.09
2024-03-12T03:16:44.258Z,9.14
2024-03-12T03:19:19.887Z,9.14
2024-03-12T03:21:50.673Z,9.14
2024-03-12T03:24:21.589Z,9.12
2024-03-12T03:26:54.907Z,9.13
2024-03-12T03:29:35.766Z,9.08
2024-03-12T03:32:08.204Z,9.17
2024-03-12T03:34:40.478Z,9.00
2024-03-12T03:37:12.789Z,8.95
2024-03-12T03:39:43.825Z,8.99
2024-03-12T03:42:20.334Z,8.94
2024-03-12T03:44:50.910Z,8.93
2024-03-12T03:47:26.302Z,8.94
2024-03-12T03:49:56.961Z,8.91
2024-03-12T03:52:30.808Z,8.86
2024-03-12T03:55:01.383Z,8.94
2024-03-12T03:57:34.997Z,9.00
2024-03-12T04:00:16.810Z,8.95
2024-03-12T04:02:49.556Z,8.99
2024-03-12T04:05:22.583Z,9.05
2024-03-12T04:07:57.539Z,8.91
2024-03-12T04:10:31.830Z,8.98
2024-03-12T04:13:05.991Z,8.94
2024-03-12T04:15:36.697Z,8.99
2024-03-12T04:18:09.470Z,8.98
2024-03-12T04:20:48.128Z,9.03
2024-03-12T04:23:18.749Z,9.08
2024-03-12T04:25:52.478Z,9.17
2024-03-12T04:28:25.679Z,9.22
2024-03-12T04:30:58.919Z,9.25
2024-03-12T04:33:29.508Z,9.25
2024-03-12T04:36:08.527Z,9.29
2024-03-12T04:38:39.761Z,9.28
2024-03-12T04:41:11.328Z,9.27
2024-03-12T04:43:45.273Z,9.23
2024-03-12T04:46:15.849Z,9.22
2024-03-12T04:48:46.927Z,9.19
2024-03-12T04:51:19.231Z,9.12
2024-03-12T04:53:49.890Z,9.14
2024-03-12T04:56:20.559Z,9.10
2024-03-12T04:58:53.749Z,9.17
2024-03-12T05:01:24.364Z,9.14
2024-03-12T05:03:57.586Z,9.07
2024-03-12T05:06:30.226Z,9.12
2024-03-12T05:09:00.900Z,9.19
2024-03-12T05:11:31.478Z,9.25
2024-03-12T05:14:05.074Z,9.26
2024-03-12T05:16:35.777Z,9.30
2024-03-12T05:19:07.358Z,9.24
2024-03-12T05:21:38.231Z,9.25
2024-03-12T05:24:10.345Z,9.32
2024-03-12T05:26:45.692Z,9.32
2024-03-12T05:29:19.110Z,9.27
2024-03-12T05:31:50.551Z,9.31
2024-03-12T05:34:30.392Z,9.34
2024-03-12T05:37:05.352Z,9.35
2024-03-12T05:39:49.802Z,9.24
2024-03-12T05:42:33.318Z,9.19
2024-03-12T05:45:19.720Z,9.17
2024-03-12T05:48:02.700Z,9.15
2024-03-12T05:50:33.337Z,9.09
2024-03-12T05:53:04.214Z,9.13
2024-03-12T05:55:34.878Z,9.19
2024-03-12T05:58:06.189Z,9.25
2024-03-12T06:00:40.129Z,9.25
2024-03-12T06:03:10.964Z,9.26
2024-03-12T06:05:42.651Z,9.24
2024-03-12T06:08:13.159Z,9.22
2024-03-12T06:10:43.844Z,9.11
2024-03-12T06:13:14.808Z,9.10
2024-03-12T06:15:48.463Z,9.10
2024-03-12T06:18:19.517Z,9.13
2024-03-12T06:20:50.981Z,9.12
2024-03-12T06:23:23.927Z,9.12
2024-03-12T06:25:54.586Z,9.11
2024-03-12T06:28:28.922Z,9.12
2024-03-12T06:31:05.850Z,9.06
2024-03-12T06:33:39.537Z,9.11
2024-03-12T06:36:10.995Z,9.18
2024-03-12T06:38:42.475Z,9.20
2024-03-12T06:41:13.260Z,9.28
2024-03-12T06:43:44.360Z,9.30
2024-03-12T06:46:20.929Z,9.27
2024-03-12T06:48:54.269Z,9.30
2024-03-12T06:51:24.844Z,9.33
2024-03-12T06:53:56.064Z,9.45
2024-03-12T06:56:28.633Z,9.39
2024-03-12T06:58:59.617Z,9.30
2024-03-12T07:01:32.821Z,9.18
2024-03-12T07:04:03.391Z,9.18
2024-03-12T07:06:34.024Z,9.21
2024-03-12T07:09:13.569Z,9.29
2024-03-12T07:11:46.044Z,9.38
2024-03-12T07:14:24.909Z,9.43
2024-03-12T07:16:59.171Z,9.53
2024-03-12T07:19:29.807Z,9.58
2024-03-12T07:22:01.028Z,9.66
2024-03-12T07:24:31.647Z,9.70
2024-03-12T07:27:02.376Z,9.81
2024-03-12T07:29:33.973Z,9.89
2024-03-12T07:32:10.260Z,9.83
2024-03-12T07:34:40.860Z,9.92
2024-03-12T07:37:11.703Z,9.90
2024-03-12T07:39:43.394Z,10.05
2024-03-12T07:42:20.208Z,10.22
2024-03-12T07:44:51.624Z,10.39
2024-03-12T07:47:25.570Z,10.47
2024-03-12T07:49:56.206Z,10.72
2024-03-12T07:52:26.852Z,10.90
2024-03-12T07:54:57.477Z,11.06
2024-03-12T07:57:28.593Z,11.36
2024-03-12T07:59:59.338Z,11.55
2024-03-12T08:02:32.840Z,11.79
2024-03-12T08:05:05.928Z,12.01
2024-03-12T08:07:36.588Z,12.26
2024-03-12T08:10:11.311Z,12.47
2024-03-12T08:12:42.853Z,12.68
2024-03-12T08:15:19.114Z,13.03
2024-03-12T08:17:57.167Z,13.27
2024-03-12T08:20:30.317Z,13.66
2024-03-12T08:23:00.939Z,13.89
2024-03-12T08:25:42.443Z,14.48
2024-03-12T08:28:22.131Z,15.25
2024-03-12T08:30:53.569Z,15.77
2024-03-12T08:33:26.938Z,16.35
2024-03-12T08:35:57.697Z,16.25
2024-03-12T08:38:30.034Z,16.26
2024-03-12T08:41:00.792Z,16.50
2024-03-12T08:43:31.372Z,17.06
2024-03-12T08:46:03.519Z,16.94
2024-03-12T08:48:37.429Z,16.58
2024-03-12T08:51:09.941Z,16.85
2024-03-12T08:53:40.700Z,17.65
2024-03-12T08:56:10.975Z,17.85
2024-03-12T08:58:41.524Z,18.33
2024-03-12T09:01:12.341Z,18.58
2024-03-12T09:03:47.054Z,18.80
2024-03-12T09:06:18.248Z,18.38
2024-03-12T09:08:50.913Z,18.66
2024-03-12T09:11:22.273Z,18.76
2024-03-12T09:13:52.890Z,18.50
2024-03-12T09:16:23.448Z,17.23
2024-03-12T09:18:57.138Z,17.26
2024-03-12T09:21:29.319Z,17.96
2024-03-12T09:24:02.245Z,17.47
2024-03-12T09:26:33.524Z,17.60
2024-03-12T09:29:07.341Z,18.27
2024-03-12T09:31:39.648Z,17.79
2024-03-12T09:34:13.772Z,16.97
2024-03-12T09:36:46.134Z,16.85
2024-03-12T09:39:18.590Z,16.78
2024-03-12T09:41:56.773Z,16.00
2024-03-12T09:44:27.954Z,15.63
2024-03-12T09:47:03.011Z,14.97
2024-03-12T09:49:37.163Z,14.78
2024-03-12T09:52:09.480Z,14.52
2024-03-12T09:54:40.565Z,14.42
2024-03-12T09:57:13.824Z,14.24
2024-03-12T09:59:44.475Z,14.17
2024-03-12T10:02:16.297Z,14.11
2024-03-12T10:04:51.913Z,14.12
2024-03-12T10:07:26.115Z,13.99
2024-03-12T10:09:57.234Z,14.19
2024-03-12T10:12:29.018Z,14.39
2024-03-12T10:15:01.567Z,14.43
2024-03-12T10:17:33.579Z,14.48
2024-03-12T10:20:17.617Z,14.53
2024-03-12T10:22:48.412Z,14.59
2024-03-12T10:25:19.238Z,14.28
2024-03-12T10:28:06.607Z,14.25
2024-03-12T10:30:41.596Z,14.05
2024-03-12T10:33:18.562Z,14.25
2024-03-12T10:35:52.563Z,14.30
2024-03-12T10:38:34.100Z,14.34
2024-03-12T10:41:22.314Z,14.08
2024-03-12T10:43:56.765Z,13.68
2024-03-12T10:46:28.521Z,13.51
2024-03-12T10:48:59.319Z,13.55
2024-03-12T10:51:32.850Z,13.60
2024-03-12T10:54:05.849Z,13.71
2024-03-12T10:56:37.001Z,13.57
2024-03-12T10:59:09.210Z,13.37
2024-03-12T11:01:41.557Z,13.21
2024-03-12T11:04:15.021Z,13.25
2024-03-12T11:06:51.936Z,13.57
2024-03-12T11:09:23.451Z,13.75
2024-03-12T11:11:55.492Z,13.82
2024-03-12T11:14:28.512Z,13.79
2024-03-12T11:16:59.736Z,13.82
2024-03-12T11:19:31.012Z,13.64
2024-03-12T11:22:16.291Z,13.38
2024-03-12T11:24:49.194Z,13.26
2024-03-12T11:27:26.452Z,13.27
2024-03-12T11:30:19.910Z,12.95
2024-03-12T11:32:54.331Z,12.80
2024-03-12T11:35:34.499Z,12.77
2024-03-12T11:38:13.245Z,12.82
2024-03-12T11:40:52.783Z,13.04
2024-03-12T11:43:42.941Z,13.18
2024-03-12T11:46:16.814Z,13.38
2024-03-12T11:48:47.780Z,13.58
2024-03-12T11:51:20.122Z,13.78
2024-03-12T11:53:53.734Z,13.53
2024-03-12T11:56:27.437Z,13.72
2024-03-12T11:59:03.228Z,13.80
2024-03-12T12:01:40.306Z,14.03
2024-03-12T12:04:13.838Z,13.91
2024-03-12T12:06:44.699Z,14.21
2024-03-12T12:09:17.965Z,14.16
2024-03-12T12:11:49.355Z,13.92
2024-03-12T12:14:21.576Z,14.06
2024-03-12T12:17:00.960Z,14.02
2024-03-12T12:19:38.569Z,14.13
2024-03-12T12:22:14.509Z,13.81
2024-03-12T12:24:47.817Z,13.48
2024-03-12T12:27:18.632Z,13.55
2024-03-12T12:29:49.378Z,13.70
2024-03-12T12:32:21.701Z,13.68
2024-03-12T12:34:53.076Z,13.58
2024-03-12T12:37:23.945Z,13.52
2024-03-12T12:39:59.953Z,13.60
2024-03-12T12:42:30.777Z,13.49
2024-03-12T12:45:06.454Z,13.74
2024-03-12T12:47:37.364Z,13.96
2024-03-12T12:50:12.682Z,14.10
2024-03-12T12:52:44.049Z,14.38
2024-03-12T12:55:19.824Z,14.38
2024-03-12T12:58:01.342Z,14.40
2024-03-12T13:00:37.660Z,14.77
2024-03-12T13:03:22.103Z,14.91
2024-03-12T13:05:52.719Z,14.78
2024-03-12T13:08:26.412Z,14.79
2024-03-12T13:11:10.607Z,14.88
2024-03-12T13:13:42.882Z,15.06
2024-03-12T13:16:17.532Z,15.28
2024-03-12T13:18:50.982Z,15.09
2024-03-12T13:21:25.198Z,15.09
2024-03-12T13:23:56.989Z,15.16
2024-03-12T13:26:32.739Z,15.05
2024-03-12T13:29:03.407Z,14.79
2024-03-12T13:31:35.100Z,14.69
2024-03-12T13:34:09.016Z,14.43
2024-03-12T13:36:39.742Z,14.37
2024-03-12T13:39:10.505Z,14.27
2024-03-12T13:41:43.770Z,13.96
2024-03-12T13:44:14.421Z,13.89
2024-03-12T13:46:47.091Z,13.84
2024-03-12T13:49:21.464Z,13.73
2024-03-12T13:51:52.518Z,13.56
2024-03-12T13:54:23.484Z,13.58
2024-03-12T13:56:57.208Z,13.55
2024-03-12T13:59:29.054Z,13.44
2024-03-12T14:02:00.848Z,13.43
2024-03-12T14:04:33.089Z,13.55
2024-03-12T14:07:05.468Z,13.55
2024-03-12T14:09:36.180Z,13.51
2024-03-12T14:12:12.989Z,13.45
2024-03-12T14:14:44.683Z,13.39
2024-03-12T14:17:15.409Z,13.42
2024-03-12T14:19:45.980Z,13.49
2024-03-12T14:22:16.795Z,13.52
2024-03-12T14:24:47.509Z,13.44
2024-03-12T14:27:20.772Z,13.44
2024-03-12T14:29:51.316Z,13.33
2024-03-12T14:32:22.337Z,13.23
2024-03-12T14:34:53.917Z,13.19
2024-03-12T14:37:24.513Z,13.22
2024-03-12T14:39:55.316Z,13.24
2024-03-12T14:42:28.622Z,13.26
2024-03-12T14:44:59.337Z,13.17
2024-03-12T14:47:29.937Z,13.25
2024-03-12T14:50:00.550Z,13.31
2024-03-12T14:52:31.185Z,13.34
2024-03-12T14:55:02.181Z,13.30
2024-03-12T14:57:35.815Z,13.13
2024-03-12T15:00:07.945Z,13.05
2024-03-12T15:02:38.562Z,13.08
2024-03-12T15:05:12.564Z,13.01
2024-03-12T15:07:44.488Z,12.93
2024-03-12T15:10:16.910Z,12.82
2024-03-12T15:12:50.361Z,12.85
2024-03-12T15:15:21.901Z,12.77
2024-03-12T15:17:52.625Z,12.75
2024-03-12T15:20:25.598Z,12.60
2024-03-12T15:22:58.155Z,12.55
2024-03-12T15:25:29.443Z,12.65
2024-03-12T15:28:02.845Z,12.60
2024-03-12T15:30:35.012Z,12.37
2024-03-12T15:33:07.745Z,12.46
2024-03-12T15:35:39.902Z,12.47
2024-03-12T15:38:10.573Z,12.50
2024-03-12T15:40:42.073Z,12.57
2024-03-12T15:43:16.466Z,12.61
2024-03-12T15:46:15.225Z,12.65
2024-03-12T15:48:52.285Z,12.57
2024-03-12T15:51:59.285Z,12.53
2024-03-12T15:54:52.981Z,12.42
2024-03-12T15:58:23.089Z,12.36
2024-03-12T16:01:20.396Z,12.30
2024-03-12T16:03:51.258Z,12.20
2024-03-12T16:06:22.790Z,12.20
2024-03-12T16:08:54.790Z,12.29
2024-03-12T16:11:30.902Z,12.28
2024-03-12T16:14:04.421Z,12.17
2024-03-12T16:16:45.113Z,12.15
2024-03-12T16:19:25.405Z,12.15
2024-03-12T16:21:56.178Z,12.20
2024-03-12T16:24:29.507Z,12.20
2024-03-12T16:27:05.416Z,12.22
2024-03-12T16:29:40.857Z,12.25
2024-03-12T16:32:31.471Z,12.25
2024-03-12T16:35:14.887Z,12.15
2024-03-12T16:37:48.528Z,12.00
2024-03-12T16:40:21.285Z,11.92
2024-03-12T16:42:52.209Z,11.97
2024-03-12T16:45:23.976Z,12.03
2024-03-12T16:47:58.376Z,11.99
2024-03-12T16:50:29.137Z,11.96
2024-03-12T16:53:03.811Z,11.94
2024-03-12T16:55:55.036Z,11.96
2024-03-12T16:58:30.026Z,11.91
2024-03-12T17:01:03.638Z,11.87
2024-03-12T17:03:52.751Z,11.93
2024-03-12T17:06:29.325Z,11.93
2024-03-12T17:09:14.410Z,11.90
2024-03-12T17:11:50.137Z,11.84
2024-03-12T17:14:35.941Z,11.84
2024-03-12T17:17:13.203Z,11.78
2024-03-12T17:19:47.265Z,11.80
2024-03-12T17:22:21.357Z,11.76
2024-03-12T17:24:57.654Z,11.79
2024-03-12T17:27:30.792Z,11.78
2024-03-12T17:30:02.473Z,11.77
2024-03-12T17:32:34.739Z,11.74
2024-03-12T17:35:12.981Z,11.66
2024-03-12T17:37:48.798Z,11.72
2024-03-12T17:40:20.955Z,11.72
2024-03-12T17:42:54.750Z,11.68
2024-03-12T17:45:29.548Z,11.65
2024-03-12T17:48:02.507Z,11.64
2024-03-12T17:50:37.537Z,11.62
2024-03-12T17:53:21.414Z,11.69
2024-03-12T17:55:57.938Z,11.72
2024-03-12T17:58:30.611Z,11.69
2024-03-12T18:01:12.112Z,11.70
2024-03-12T18:03:47.391Z,11.69
2024-03-12T18:06:23.084Z,11.56
2024-03-12T18:09:01.321Z,11.65
2024-03-12T18:11:51.194Z,11.63
2024-03-12T18:14:29.064Z,11.48
2024-03-12T18:17:02.278Z,11.44
2024-03-12T18:19:34.800Z,11.33
2024-03-12T18:22:10.233Z,11.38
2024-03-12T18:24:56.298Z,11.43
2024-03-12T18:27:28.681Z,11.39
2024-03-12T18:30:08.329Z,11.27
2024-03-12T18:32:39.946Z,11.24
2024-03-12T18:35:13.145Z,11.31
2024-03-12T18:37:58.368Z,11.34
2024-03-12T18:40:32.160Z,11.24
2024-03-12T18:43:04.905Z,11.15
2024-03-12T18:45:35.735Z,11.17
2024-03-12T18:48:14.406Z,11.22
2024-03-12T18:50:47.806Z,11.24
2024-03-12T18:53:30.403Z,11.19
2024-03-12T18:56:03.282Z,11.20
2024-03-12T18:58:37.780Z,11.21
2024-03-12T19:01:15.193Z,11.15
2024-03-12T19:03:58.876Z,11.21
2024-03-12T19:06:30.064Z,11.19
2024-03-12T19:09:04.583Z,11.22
2024-03-12T19:11:35.917Z,11.27
2024-03-12T19:14:07.021Z,11.35
2024-03-12T19:16:37.911Z,11.43
2024-03-12T19:19:10.050Z,11.37
2024-03-12T19:21:41.770Z,11.40
2024-03-12T19:24:17.284Z,11.50
2024-03-12T19:26:51.952Z,11.55
2024-03-12T19:29:23.597Z,11.63
2024-03-12T19:31:57.840Z,11.64
2024-03-12T19:34:28.812Z,11.69
2024-03-12T19:36:59.792Z,11.69
2024-03-12T19:39:33.563Z,11.70
2024-03-12T19:42:05.175Z,11.69
2024-03-12T19:44:35.816Z,11.73
2024-03-12T19:47:07.184Z,11.72
2024-03-12T19:49:38.263Z,11.54
2024-03-12T19:52:10.162Z,11.47
2024-03-12T19:54:43.310Z,11.58
2024-03-12T19:57:14.115Z,11.64
2024-03-12T19:59:44.372Z,11.67
2024-03-12T20:02:15.067Z,11.70
2024-03-12T20:04:45.351Z,11.73
2024-03-12T20:07:15.701Z,11.62
2024-03-12T20:09:48.667Z,11.53
2024-03-12T20:12:18.965Z,11.42
2024-03-12T20:14:49.749Z,11.29
2024-03-12T20:17:21.571Z,11.33
2024-03-12T20:19:51.852Z,11.35
2024-03-12T20:22:22.214Z,11.36
2024-03-12T20:24:55.730Z,11.29
2024-03-12T20:27:26.180Z,11.35
2024-03-12T20:29:56.406Z,11.38
2024-03-12T20:32:26.705Z,11.39
2024-03-12T20:34:57.388Z,11.35
2024-03-12T20:37:29.521Z,11.37
2024-03-12T20:40:02.508Z,11.41
2024-03-12T20:42:35.245Z,11.48
2024-03-12T20:45:07.575Z,11.57
2024-03-12T20:47:37.922Z,11.57
2024-03-12T20:50:10.338Z,11.60
2024-03-12T20:52:41.084Z,11.60
2024-03-12T20:55:15.417Z,11.59
2024-03-12T20:57:48.717Z,11.59
2024-03-12T21:00:27.977Z,11.57
2024-03-12T21:02:58.598Z,11.61
2024-03-12T21:05:31.580Z,11.60
2024-03-12T21:08:02.001Z,11.56
2024-03-12T21:10:34.915Z,11.50
2024-03-12T21:13:05.292Z,11.52
2024-03-12T21:15:36.310Z,11.46
2024-03-12T21:18:07.497Z,11.47
2024-03-12T21:20:37.801Z,11.49
2024-03-12T21:23:10.059Z,11.52
2024-03-12T21:25:42.961Z,11.52
2024-03-12T21:28:14.017Z,11.53
2024-03-12T21:30:44.431Z,11.46
2024-03-12T21:33:15.052Z,11.42
2024-03-12T21:35:46.030Z,11.44
2024-03-12T21:38:16.242Z,11.44
2024-03-12T21:40:49.190Z,11.36
2024-03-12T21:43:19.611Z,11.39
2024-03-12T21:45:50.556Z,11.27
2024-03-12T21:48:25.091Z,11.22
2024-03-12T21:50:55.534Z,11.08
2024-03-12T21:53:28.110Z,10.92
2024-03-12T21:56:01.079Z,10.79
2024-03-12T21:58:32.952Z,10.76
2024-03-12T22:01:03.966Z,10.73
2024-03-12T22:03:34.197Z,10.75
2024-03-12T22:06:04.506Z,10.71
2024-03-12T22:08:34.705Z,10.68
2024-03-12T22:11:09.516Z,10.70
2024-03-12T22:16:16.341Z,10.67
2024-03-12T22:18:48.193Z,10.70
2024-03-12T22:21:23.888Z,10.75
2024-03-12T22:23:55.021Z,10.85
2024-03-12T22:26:28.065Z,10.74
2024-03-12T22:28:58.425Z,10.62
2024-03-12T22:31:28.669Z,10.67
2024-03-12T22:33:59.925Z,10.54
2024-03-12T22:36:30.141Z,10.50
2024-03-12T22:39:01.514Z,10.31
2024-03-12T22:41:34.774Z,10.36
2024-03-12T22:44:05.928Z,10.29
2024-03-12T22:46:36.607Z,10.14
2024-03-12T22:49:07.415Z,10.17
2024-03-12T22:51:38.800Z,10.06
2024-03-12T22:54:09.624Z,9.99
2024-03-12T22:56:43.100Z,9.93
2024-03-12T22:59:14.713Z,10.06
2024-03-12T23:01:49.930Z,10.00
2024-03-12T23:04:20.629Z,9.99
2024-03-12T23:06:52.367Z,10.02
2024-03-12T23:09:23.321Z,10.13
2024-03-12T23:11:57.735Z,10.15
2024-03-12T23:14:28.105Z,10.16
2024-03-12T23:16:58.599Z,10.23
2024-03-12T23:19:29.863Z,10.22
2024-03-12T23:22:00.222Z,10.26
2024-03-12T23:24:30.505Z,10.38
2024-03-12T23:27:04.882Z,10.45
2024-03-12T23:29:35.374Z,10.43
2024-03-12T23:32:06.662Z,10.33
2024-03-12T23:34:37.137Z,10.39
2024-03-12T23:37:07.608Z,10.38
2024-03-12T23:39:38.806Z,10.39
2024-03-12T23:42:11.872Z,10.36
2024-03-12T23:44:42.075Z,10.35
2024-03-12T23:47:12.402Z,10.28
2024-03-12T23:49:43.341Z,10.09
2024-03-12T23:52:13.677Z,10.17
2024-03-12T23:54:45.157Z,10.34
2024-03-12T23:57:18.050Z,10.44
2024-03-12T23:59:49.766Z,10.40
